Time;durP1;ratioP1;P1;durP2;ratioP2;P2;SDS_P1;SDS_P2;PMS_P1;PMS_P2;Temp;Humidity;BMP_temperature;BMP_pressure;BME280_temperature;BME280_humidity;BME280_pressure;Samples;Min_cycle;Max_cycle;Signal;HPM_P1;HPM_P2
2022/10/25 00:03:19;;;;;;;;;;;;;;;;;;8420369;27;28588;-76
2022/10/25 00:07:19;;;;;;;;;;;;;;;;;;8419598;27;27352;-76
2022/10/25 00:11:19;;;;;;;;;;;;;;;;;;8415419;27;27261;-76
2022/10/25 00:15:20;;;;;;;;;;;;;;;;;;8423128;27;28745;-76
2022/10/25 00:19:20;;;;;;;;;;;;;;;;;;8425020;27;27570;-76
2022/10/25 00:23:20;;;;;;;;;;;;;;;;;;8422005;27;27545;-76
2022/10/25 00:27:20;;;;;;;;;;;;;;;;;;8420080;27;27899;-76
2022/10/25 00:31:20;;;;;;;;;;;;;;;;;;8416481;27;27566;-76
2022/10/25 00:35:20;;;;;;;;;;;;;;;;;;8417457;27;28287;-75
2022/10/25 00:39:21;;;;;;;;;;;;;;;;;;8419420;27;27841;-76
2022/10/25 00:43:21;;;;;;;;;;;;;;;;;;8423268;27;29344;-76
2022/10/25 00:47:21;;;;;;;;;;;;;;;;;;8420548;27;28288;-75
2022/10/25 00:51:21;;;;;;;;;;;;;;;;;;8417595;27;29479;-76
2022/10/25 00:55:21;;;;;;;;;;;;;;;;;;8424598;27;27673;-76
2022/10/25 00:59:21;;;;;;;;;;;;;;;;;;8430370;27;28150;-76
2022/10/25 01:03:21;;;;;;;;;;;;;;;;;;8418477;27;28068;-76
2022/10/25 01:07:21;;;;;;;;;;;;;;;;;;8417705;27;28248;-76
2022/10/25 01:11:22;;;;;;;;;;;;;;;;;;8419846;27;27190;-77
2022/10/25 01:15:22;;;;;;;;;;;;;;;;;;8419348;27;27625;-77
2022/10/25 01:19:22;;;;;;;;;;;;;;;;;;8429934;27;28955;-78
2022/10/25 01:23:22;;;;;;;;;;;;;;;;;;8426396;27;27808;-76
2022/10/25 01:27:22;;;;;;;;;;;;;;;;;;8426803;27;27755;-77
2022/10/25 01:31:22;;;;;;;;;;;;;;;;;;8427654;27;29572;-76
2022/10/25 01:35:23;;;;;;;;;;;;;;;;;;8426439;27;27156;-75
2022/10/25 01:39:23;;;;;;;;;;;;;;;;;;8428130;27;28739;-75
2022/10/25 01:43:23;;;;;;;;;;;;;;;;;;8431859;27;28359;-76
2022/10/25 01:47:23;;;;;;;;;;;;;;;;;;8431360;27;29132;-76
2022/10/25 01:51:23;;;;;;;;;;;;;;;;;;8424602;27;27497;-77
2022/10/25 01:55:23;;;;;;;;;;;;;;;;;;8421851;27;27545;-76
2022/10/25 01:59:23;;;;;;;;;;;;;;;;;;8425409;27;28520;-76
2022/10/25 02:03:23;;;;;;;;;;;;;;;;;;8435648;27;28681;-76
2022/10/25 02:07:24;;;;;;;;;;;;;;;;;;8421185;27;28179;-76
2022/10/25 02:11:24;;;;;;;;;;;;;;;;;;8430531;27;28280;-75
2022/10/25 02:15:24;;;;;;;;;;;;;;;;;;8424540;27;28343;-75
2022/10/25 02:19:24;;;;;;;;;;;;;;;;;;8420089;27;27360;-75
2022/10/25 02:23:24;;;;;;;;;;;;;;;;;;8429445;27;28326;-76
2022/10/25 02:27:24;;;;;;;;;;;;;;;;;;8427461;27;27435;-76
2022/10/25 02:31:25;;;;;;;;;;;;;;;;;;8415752;27;28356;-76
2022/10/25 02:35:25;;;;;;;;;;;;;;;;;;8420154;27;28160;-76
2022/10/25 02:39:25;;;;;;;;;;;;;;;;;;8422957;27;27394;-77
2022/10/25 02:43:25;;;;;;;;;;;;;;;;;;8429070;27;28154;-77
2022/10/25 02:47:25;;;;;;;;;;;;;;;;;;8428011;27;28604;-75
2022/10/25 02:51:25;;;;;;;;;;;;;;;;;;8433724;27;28593;-76
2022/10/25 02:55:25;;;;;;;;;;;;;;;;;;8428576;27;28142;-76
2022/10/25 02:59:25;;;;;;;;;;;;;;;;;;8429023;27;28144;-75
2022/10/25 03:03:26;;;;;;;;;;;;;;;;;;8428381;27;27332;-75
2022/10/25 03:07:26;;;;;;;;;;;;;;;;;;8418752;27;28464;-74
2022/10/25 03:11:26;;;;;;;;;;;;;;;;;;8426972;27;27362;-77
2022/10/25 03:15:26;;;;;;;;;;;;;;;;;;8417850;27;28174;-75
2022/10/25 03:19:26;;;;;;;;;;;;;;;;;;8423546;27;27781;-76
2022/10/25 03:23:26;;;;;;;;;;;;;;;;;;8427324;27;28554;-75
2022/10/25 03:27:27;;;;;;;;;;;;;;;;;;8424801;27;27265;-75
2022/10/25 03:31:27;;;;;;;;;;;;;;;;;;8425236;27;28187;-76
2022/10/25 03:35:27;;;;;;;;;;;;;;;;;;8426599;27;28582;-76
2022/10/25 03:39:27;;;;;;;;;;;;;;;;;;8417923;27;27375;-76
2022/10/25 03:43:27;;;;;;;;;;;;;;;;;;8418361;27;28190;-76
2022/10/25 03:47:27;;;;;;;;;;;;;;;;;;8418059;27;27456;-76
2022/10/25 03:51:27;;;;;;;;;;;;;;;;;;8428125;27;28973;-76
2022/10/25 03:55:27;;;;;;;;;;;;;;;;;;8416522;27;28831;-76
2022/10/25 03:59:28;;;;;;;;;;;;;;;;;;8426801;27;28364;-77
2022/10/25 04:03:28;;;;;;;;;;;;;;;;;;8417444;27;28207;-77
2022/10/25 04:07:28;;;;;;;;;;;;;;;;;;8423084;27;28212;-76
2022/10/25 04:11:28;;;;;;;;;;;;;;;;;;8426848;27;28779;-75
2022/10/25 04:15:28;;;;;;;;;;;;;;;;;;8425310;27;28613;-76
2022/10/25 04:19:28;;;;;;;;;;;;;;;;;;8420474;27;27532;-76
2022/10/25 04:23:30;;;;;;;;;;;;;;;;;;8418275;27;27473;-77
2022/10/25 04:27:30;;;;;;;;;;;;;;;;;;8419198;27;27848;-76
2022/10/25 04:31:30;;;;;;;;;;;;;;;;;;8428304;27;28519;-76
2022/10/25 04:35:30;;;;;;;;;;;;;;;;;;8423965;27;28516;-76
2022/10/25 04:39:30;;;;;;;;;;;;;;;;;;8424027;27;29349;-76
2022/10/25 04:43:30;;;;;;;;;;;;;;;;;;8421914;27;28465;-77
2022/10/25 04:47:31;;;;;;;;;;;;;;;;;;8412376;27;27315;-76
2022/10/25 04:51:33;;;;;;;;;;;;;;;;;;8419209;27;27983;-75
2022/10/25 04:55:33;;;;;;;;;;;;;;;;;;8423598;27;28427;-77
2022/10/25 04:59:33;;;;;;;;;;;;;;;;;;8422336;27;29390;-75
2022/10/25 05:03:33;;;;;;;;;;;;;;;;;;8424023;27;28263;-76
2022/10/25 05:07:33;;;;;;;;;;;;;;;;;;8414384;27;29186;-77
2022/10/25 05:11:33;;;;;;;;;;;;;;;;;;8418019;27;27700;-75
2022/10/25 05:15:34;;;;;;;;;;;;;;;;;;8420142;27;27375;-76
2022/10/25 05:19:34;;;;;;;;;;;;;;;;;;8430455;27;28238;-76
2022/10/25 05:23:34;;;;;;;;;;;;;;;;;;8418797;27;28429;-76
2022/10/25 05:27:34;;;;;;;;;;;;;;;;;;8419794;27;29106;-75
2022/10/25 05:31:34;;;;;;;;;;;;;;;;;;8417570;27;27370;-76
2022/10/25 05:35:34;;;;;;;;;;;;;;;;;;8422260;27;28491;-76
2022/10/25 05:39:34;;;;;;;;;;;;;;;;;;8418984;27;27297;-76
2022/10/25 05:43:35;;;;;;;;;;;;;;;;;;8419855;27;28317;-76
2022/10/25 05:47:35;;;;;;;;;;;;;;;;;;8424281;27;28642;-76
2022/10/25 05:51:35;;;;;;;;;;;;;;;;;;8419129;27;28160;-76
2022/10/25 05:55:35;;;;;;;;;;;;;;;;;;8428391;27;28307;-77
2022/10/25 05:59:35;;;;;;;;;;;;;;;;;;8419415;27;28310;-77
2022/10/25 06:03:35;;;;;;;;;;;;;;;;;;8426248;27;28766;-77
2022/10/25 06:07:36;;;;;;;;;;;;;;;;;;8426620;27;27653;-76
2022/10/25 06:11:36;;;;;;;;;;;;;;;;;;8422569;27;27612;-76
2022/10/25 06:15:39;;;;;;;;;;;;;;;;;;8415019;27;27492;-77
2022/10/25 06:19:39;;;;;;;;;;;;;;;;;;8425006;27;28456;-77
2022/10/25 06:23:39;;;;;;;;;;;;;;;;;;8436762;27;28400;-78
2022/10/25 06:27:39;;;;;;;;;;;;;;;;;;8427420;27;27174;-77
2022/10/25 06:31:41;;;;;;;;;;;;;;;;;;8428960;27;29701;-77
2022/10/25 06:35:41;;;;;;;;;;;;;;;;;;8423592;27;28502;-78
2022/10/25 06:39:41;;;;;;;;;;;;;;;;;;8428019;27;28170;-78
2022/10/25 06:43:41;;;;;;;;;;;;;;;;;;8432398;27;28545;-77
2022/10/25 06:47:41;;;;;;;;;;;;;;;;;;8422445;27;29043;-76
2022/10/25 06:51:41;;;;;;;;;;;;;;;;;;8420081;27;28194;-76
2022/10/25 06:55:43;;;;;;;;;;;;;;;;;;8428216;27;28198;-76
2022/10/25 06:59:44;;;;;;;;;;;;;;;;;;8431412;27;27455;-76
2022/10/25 07:03:45;;;;;;;;;;;;;;;;;;8434073;27;28372;-76
2022/10/25 07:07:45;;;;;;;;;;;;;;;;;;8435333;27;28205;-77
2022/10/25 07:11:45;;;;;;;;;;;;;;;;;;8432327;27;28130;-76
2022/10/25 07:15:45;;;;;;;;;;;;;;;;;;8438989;27;28406;-77
2022/10/25 07:19:46;;;;;;;;;;;;;;;;;;8431004;27;28375;-77
2022/10/25 07:23:46;;;;;;;;;;;;;;;;;;8429572;27;27503;-76
2022/10/25 07:27:46;;;;;;;;;;;;;;;;;;8426726;27;28141;-77
2022/10/25 07:31:46;;;;;;;;;;;;;;;;;;8433883;27;27483;-77
2022/10/25 07:35:46;;;;;;;;;;;;;;;;;;8422733;27;27305;-76
2022/10/25 07:39:46;;;;;;;;;;;;;;;;;;8417966;27;29195;-76
2022/10/25 07:43:46;;;;;;;;;;;;;;;;;;8426558;27;27161;-76
2022/10/25 07:47:46;;;;;;;;;;;;;;;;;;8428770;27;27708;-76
2022/10/25 07:51:47;;;;;;;;;;;;;;;;;;8419982;27;28274;-76
2022/10/25 07:55:47;;;;;;;;;;;;;;;;;;8423611;27;28207;-76
2022/10/25 07:59:47;;;;;;;;;;;;;;;;;;8425845;27;28378;-77
2022/10/25 08:03:47;;;;;;;;;;;;;;;;;;8422126;27;28576;-77
2022/10/25 08:07:47;;;;;;;;;;;;;;;;;;8419100;27;27624;-77
2022/10/25 08:11:47;;;;;;;;;;;;;;;;;;8419996;27;28557;-76
2022/10/25 08:15:47;;;;;;;;;;;;;;;;;;8420654;27;27878;-76
2022/10/25 08:19:48;;;;;;;;;;;;;;;;;;8420512;27;27980;-76
2022/10/25 08:23:48;;;;;;;;;;;;;;;;;;8428381;27;29014;-76
2022/10/25 08:27:48;;;;;;;;;;;;;;;;;;8427300;27;28776;-76
2022/10/25 08:31:48;;;;;;;;;;;;;;;;;;8421516;27;27483;-76
2022/10/25 08:35:48;;;;;;;;;;;;;;;;;;8418209;27;27176;-76
2022/10/25 08:39:48;;;;;;;;;;;;;;;;;;8422512;27;27432;-77
2022/10/25 08:43:48;;;;;;;;;;;;;;;;;;8418307;27;27103;-76
2022/10/25 08:47:49;;;;;;;;;;;;;;;;;;8426590;27;28183;-76
2022/10/25 08:51:51;;;;;;;;;;;;;;;;;;8424041;27;27995;-77
2022/10/25 08:55:52;;;;;;;;;;;;;;;;;;8420514;27;28769;-77
2022/10/25 08:59:52;;;;;;;;;;;;;;;;;;8417741;27;27561;-77
2022/10/25 09:03:52;;;;;;;;;;;;;;;;;;8413207;27;28151;-76
2022/10/25 09:07:52;;;;;;;;;;;;;;;;;;8419204;27;29425;-77
2022/10/25 09:11:52;;;;;;;;;;;;;;;;;;8417618;27;27786;-76
2022/10/25 09:15:55;;;;;;;;;;;;;;;;;;8416339;27;27382;-76
2022/10/25 09:19:55;;;;;;;;;;;;;;;;;;8417380;27;28461;-77
2022/10/25 09:23:55;;;;;;;;;;;;;;;;;;8420186;27;27554;-77
2022/10/25 09:27:55;;;;;;;;;;;;;;;;;;8411165;27;27567;-77
2022/10/25 09:31:56;;;;;;;;;;;;;;;;;;8414103;27;28269;-77
2022/10/25 09:35:56;;;;;;;;;;;;;;;;;;8417744;27;27139;-78
2022/10/25 09:39:56;;;;;;;;;;;;;;;;;;8423603;27;27266;-77
2022/10/25 09:43:56;;;;;;;;;;;;;;;;;;8429396;27;28253;-77
2022/10/25 09:47:56;;;;;;;;;;;;;;;;;;8424642;27;27843;-76
2022/10/25 09:51:56;;;;;;;;;;;;;;;;;;8422239;27;29865;-76
2022/10/25 09:55:56;;;;;;;;;;;;;;;;;;8434730;27;28273;-77
2022/10/25 09:59:57;;;;;;;;;;;;;;;;;;8430003;27;27092;-77
2022/10/25 10:03:57;;;;;;;;;;;;;;;;;;8423044;27;28177;-78
2022/10/25 10:07:57;;;;;;;;;;;;;;;;;;8420293;27;28215;-77
2022/10/25 10:11:57;;;;;;;;;;;;;;;;;;8424608;27;28479;-77
2022/10/25 10:15:57;;;;;;;;;;;;;;;;;;8433259;27;27472;-77
2022/10/25 10:19:57;;;;;;;;;;;;;;;;;;8429297;27;29448;-78
2022/10/25 10:23:58;;;;;;;;;;;;;;;;;;8422169;27;27903;-78
2022/10/25 10:27:58;;;;;;;;;;;;;;;;;;8425669;27;27399;-76
2022/10/25 10:31:59;;;;;;;;;;;;;;;;;;8419893;27;28382;-78
2022/10/25 10:35:59;;;;;;;;;;;;;;;;;;8424796;27;27489;-76
2022/10/25 10:39:59;;;;;;;;;;;;;;;;;;8427935;27;27373;-78
2022/10/25 10:43:59;;;;;;;;;;;;;;;;;;8423060;27;27584;-76
2022/10/25 10:47:59;;;;;;;;;;;;;;;;;;8421477;27;28191;-77
2022/10/25 10:52:01;;;;;;;;;;;;;;;;;;8424689;27;29260;-78
2022/10/25 10:56:01;;;;;;;;;;;;;;;;;;8422671;27;28371;-76
2022/10/25 11:00:02;;;;;;;;;;;;;;;;;;8426501;27;27891;-77
2022/10/25 11:04:02;;;;;;;;;;;;;;;;;;8419994;27;28261;-76
2022/10/25 11:08:02;;;;;;;;;;;;;;;;;;8421683;27;28195;-76
2022/10/25 11:12:02;;;;;;;;;;;;;;;;;;8419706;27;27453;-77
2022/10/25 11:16:02;;;;;;;;;;;;;;;;;;8427317;27;28130;-77
2022/10/25 11:20:02;;;;;;;;;;;;;;;;;;8427006;27;28243;-78
2022/10/25 11:24:02;;;;;;;;;;;;;;;;;;8430326;27;28633;-77
2022/10/25 11:28:03;;;;;;;;;;;;;;;;;;8434530;27;29248;-77
2022/10/25 11:32:03;;;;;;;;;;;;;;;;;;8437289;27;27294;-77
2022/10/25 11:36:03;;;;;;;;;;;;;;;;;;8435048;27;27984;-77
2022/10/25 11:40:03;;;;;;;;;;;;;;;;;;8438486;27;28116;-77
2022/10/25 11:44:03;;;;;;;;;;;;;;;;;;8438366;27;27749;-77
2022/10/25 11:48:03;;;;;;;;;;;;;;;;;;8451235;27;28281;-77
2022/10/25 11:52:03;;;;;;;;;;;;;;;;;;8434577;27;27359;-77
2022/10/25 11:56:04;;;;;;;;;;;;;;;;;;8432266;27;27377;-76
2022/10/25 12:00:05;;;;;;;;;;;;;;;;;;8426735;27;27613;-77
2022/10/25 12:04:06;;;;;;;;;;;;;;;;;;8425318;27;27841;-77
2022/10/25 12:08:06;;;;;;;;;;;;;;;;;;8420769;27;27474;-76
2022/10/25 12:12:06;;;;;;;;;;;;;;;;;;8419413;27;28396;-77
2022/10/25 12:16:06;;;;;;;;;;;;;;;;;;8423972;27;27643;-76
2022/10/25 12:20:06;;;;;;;;;;;;;;;;;;8416927;27;28867;-78
2022/10/25 12:24:06;;;;;;;;;;;;;;;;;;8419603;27;28440;-77
2022/10/25 12:28:06;;;;;;;;;;;;;;;;;;8423461;27;28184;-78
2022/10/25 12:32:07;;;;;;;;;;;;;;;;;;8431600;27;27299;-78
2022/10/25 12:36:07;;;;;;;;;;;;;;;;;;8432672;27;28527;-76
2022/10/25 12:40:09;;;;;;;;;;;;;;;;;;8434522;27;48539;-78
2022/10/25 12:44:09;;;;;;;;;;;;;;;;;;8435045;27;28859;-78
2022/10/25 12:48:09;;;;;;;;;;;;;;;;;;8437094;27;28292;-77
2022/10/25 12:52:09;;;;;;;;;;;;;;;;;;8432840;27;28193;-77
2022/10/25 12:56:09;;;;;;;;;;;;;;;;;;8437489;27;28761;-76
2022/10/25 13:00:10;;;;;;;;;;;;;;;;;;8423018;27;28539;-77
2022/10/25 13:04:10;;;;;;;;;;;;;;;;;;8414392;27;27340;-78
2022/10/25 13:08:10;;;;;;;;;;;;;;;;;;8425437;27;28189;-77
2022/10/25 13:12:10;;;;;;;;;;;;;;;;;;8414831;27;27533;-76
2022/10/25 13:16:10;;;;;;;;;;;;;;;;;;8421750;27;27429;-77
2022/10/25 13:20:10;;;;;;;;;;;;;;;;;;8417733;27;29105;-78
2022/10/25 13:24:10;;;;;;;;;;;;;;;;;;8418447;27;28050;-78
2022/10/25 13:28:10;;;;;;;;;;;;;;;;;;8418856;27;29398;-77
2022/10/25 13:32:11;;;;;;;;;;;;;;;;;;8418072;27;27714;-77
2022/10/25 13:36:11;;;;;;;;;;;;;;;;;;8417011;27;28488;-78
2022/10/25 13:40:11;;;;;;;;;;;;;;;;;;8422185;27;28371;-77
2022/10/25 13:44:11;;;;;;;;;;;;;;;;;;8414979;27;27323;-78
2022/10/25 13:48:11;;;;;;;;;;;;;;;;;;8421732;27;28361;-77
2022/10/25 13:52:11;;;;;;;;;;;;;;;;;;8410760;27;27880;-78
2022/10/25 13:56:11;;;;;;;;;;;;;;;;;;8428459;27;27399;-78
2022/10/25 14:00:12;;;;;;;;;;;;;;;;;;8434989;27;28208;-78
2022/10/25 14:04:12;;;;;;;;;;;;;;;;;;8431063;27;28640;-78
2022/10/25 14:08:12;;;;;;;;;;;;;;;;;;8431992;27;28616;-77
2022/10/25 14:12:12;;;;;;;;;;;;;;;;;;8423676;27;28265;-79
2022/10/25 14:16:12;;;;;;;;;;;;;;;;;;8431212;27;28299;-77
2022/10/25 14:20:12;;;;;;;;;;;;;;;;;;8423902;27;27331;-78
2022/10/25 14:24:12;;;;;;;;;;;;;;;;;;8433414;27;28247;-77
2022/10/25 14:28:13;;;;;;;;;;;;;;;;;;8434498;27;28280;-76
2022/10/25 14:32:13;;;;;;;;;;;;;;;;;;8429425;27;28543;-78
2022/10/25 14:36:13;;;;;;;;;;;;;;;;;;8431818;27;27390;-76
2022/10/25 14:40:13;;;;;;;;;;;;;;;;;;8435454;27;27616;-77
2022/10/25 14:44:14;;;;;;;;;;;;;;;;;;8436798;27;28275;-79
2022/10/25 14:48:14;;;;;;;;;;;;;;;;;;8427729;27;28610;-78
2022/10/25 14:52:14;;;;;;;;;;;;;;;;;;8434921;27;28494;-76
2022/10/25 14:56:14;;;;;;;;;;;;;;;;;;8437084;27;27531;-76
2022/10/25 15:00:14;;;;;;;;;;;;;;;;;;8432948;27;28234;-76
2022/10/25 15:04:14;;;;;;;;;;;;;;;;;;8432582;27;27523;-76
2022/10/25 15:08:14;;;;;;;;;;;;;;;;;;8436529;27;27628;-76
2022/10/25 15:12:15;;;;;;;;;;;;;;;;;;8439033;27;28398;-77
2022/10/25 15:16:15;;;;;;;;;;;;;;;;;;8436515;27;28108;-76
2022/10/25 15:20:15;;;;;;;;;;;;;;;;;;8430945;27;27368;-76
2022/10/25 15:24:15;;;;;;;;;;;;;;;;;;8429377;27;28812;-75
2022/10/25 15:28:16;;;;;;;;;;;;;;;;;;8431494;27;28348;-75
2022/10/25 15:32:16;;;;;;;;;;;;;;;;;;8432075;27;28718;-75
2022/10/25 15:36:16;;;;;;;;;;;;;;;;;;8433970;27;27407;-76
2022/10/25 15:40:16;;;;;;;;;;;;;;;;;;8417598;27;28189;-76
2022/10/25 15:44:17;;;;;;;;;;;;;;;;;;8419172;27;29373;-76
2022/10/25 15:48:17;;;;;;;;;;;;;;;;;;8416271;27;29055;-74
2022/10/25 15:52:17;;;;;;;;;;;;;;;;;;8420029;27;28180;-76
2022/10/25 15:57:17;;;;;;;;;;;;;;;;;;8449706;27;27834;-75
2022/10/25 16:01:17;;;;;;;;;;;;;;;;;;8442272;27;27236;-75
2022/10/25 16:05:17;;;;;;;;;;;;;;;;;;8440859;27;27457;-75
2022/10/25 16:09:17;;;;;;;;;;;;;;;;;;8439022;27;28933;-75
2022/10/25 16:13:17;;;;;;;;;;;;;;;;;;8437047;27;28190;-75
2022/10/25 16:17:18;;;;;;;;;;;;;;;;;;8442212;27;29034;-76
2022/10/25 16:21:21;;;;;;;;;;;;;;;;;;8435184;27;27250;-76
2022/10/25 16:25:21;;;;;;;;;;;;;;;;;;8437568;27;28308;-76
2022/10/25 16:29:21;;;;;;;;;;;;;;;;;;8440151;27;27898;-75
2022/10/25 16:33:21;;;;;;;;;;;;;;;;;;8433318;27;28208;-75
2022/10/25 16:37:21;;;;;;;;;;;;;;;;;;8436372;27;28103;-75
2022/10/25 16:41:22;;;;;;;;;;;;;;;;;;8439667;27;28198;-76
2022/10/25 16:45:22;;;;;;;;;;;;;;;;;;8439212;27;27566;-75
2022/10/25 16:49:22;;;;;;;;;;;;;;;;;;8437963;27;27492;-75
2022/10/25 16:53:22;;;;;;;;;;;;;;;;;;8437509;27;29272;-74
2022/10/25 16:57:22;;;;;;;;;;;;;;;;;;8439586;27;28153;-76
2022/10/25 17:01:22;;;;;;;;;;;;;;;;;;8440600;27;28456;-76
2022/10/25 17:05:22;;;;;;;;;;;;;;;;;;8429585;27;28922;-76
2022/10/25 17:09:22;;;;;;;;;;;;;;;;;;8417416;27;27272;-76
2022/10/25 17:13:23;;;;;;;;;;;;;;;;;;8419805;27;27666;-76
2022/10/25 17:17:23;;;;;;;;;;;;;;;;;;8416194;27;29308;-75
2022/10/25 17:21:23;;;;;;;;;;;;;;;;;;8409868;27;28588;-76
2022/10/25 17:25:23;;;;;;;;;;;;;;;;;;8418037;27;27226;-77
2022/10/25 17:29:23;;;;;;;;;;;;;;;;;;8413197;27;27375;-75
2022/10/25 17:33:23;;;;;;;;;;;;;;;;;;8420233;27;28311;-75
2022/10/25 17:37:24;;;;;;;;;;;;;;;;;;8422664;27;27279;-75
2022/10/25 17:41:24;;;;;;;;;;;;;;;;;;8420355;27;27385;-75
2022/10/25 17:45:24;;;;;;;;;;;;;;;;;;8421478;27;27896;-74
2022/10/25 17:49:24;;;;;;;;;;;;;;;;;;8418733;27;28427;-75
2022/10/25 17:53:24;;;;;;;;;;;;;;;;;;8418239;27;28642;-75
2022/10/25 17:57:24;;;;;;;;;;;;;;;;;;8424131;27;27364;-75
2022/10/25 18:01:25;;;;;;;;;;;;;;;;;;8424823;27;27232;-75
2022/10/25 18:05:25;;;;;;;;;;;;;;;;;;8425924;27;28606;-75
2022/10/25 18:09:25;;;;;;;;;;;;;;;;;;8429372;27;28484;-75
2022/10/25 18:13:25;;;;;;;;;;;;;;;;;;8425444;27;28706;-76
2022/10/25 18:17:26;;;;;;;;;;;;;;;;;;8423645;27;27441;-76
2022/10/25 18:21:26;;;;;;;;;;;;;;;;;;8415323;27;27609;-74
2022/10/25 18:25:26;;;;;;;;;;;;;;;;;;8417929;27;28590;-76
2022/10/25 18:29:26;;;;;;;;;;;;;;;;;;8415962;27;27347;-74
2022/10/25 18:33:27;;;;;;;;;;;;;;;;;;8417041;27;28508;-75
2022/10/25 18:37:30;;;;;;;;;;;;;;;;;;8417199;27;28848;-76
2022/10/25 18:41:31;;;;;;;;;;;;;;;;;;8418518;27;27978;-75
2022/10/25 18:45:31;;;;;;;;;;;;;;;;;;8418386;27;28306;-76
2022/10/25 18:49:31;;;;;;;;;;;;;;;;;;8415669;27;27962;-77
2022/10/25 18:53:34;;;;;;;;;;;;;;;;;;8408299;27;28342;-76
2022/10/25 18:57:34;;;;;;;;;;;;;;;;;;8410786;27;28407;-76
2022/10/25 19:01:34;;;;;;;;;;;;;;;;;;8416087;27;28474;-76
2022/10/25 19:05:38;;;;;;;;;;;;;;;;;;8408364;27;28401;-76
2022/10/25 19:09:39;;;;;;;;;;;;;;;;;;8415645;27;28680;-76
2022/10/25 19:13:39;;;;;;;;;;;;;;;;;;8412838;27;46279;-76
2022/10/25 19:17:39;;;;;;;;;;;;;;;;;;8414248;27;27308;-74
2022/10/25 19:21:39;;;;;;;;;;;;;;;;;;8411383;27;28112;-74
2022/10/25 19:25:39;;;;;;;;;;;;;;;;;;8416003;27;28386;-77
2022/10/25 19:29:39;;;;;;;;;;;;;;;;;;8413038;27;27689;-75
2022/10/25 19:33:40;;;;;;;;;;;;;;;;;;8415577;27;27626;-76
2022/10/25 19:37:40;;;;;;;;;;;;;;;;;;8411291;27;27442;-75
2022/10/25 19:41:40;;;;;;;;;;;;;;;;;;8407129;27;27525;-76
2022/10/25 19:45:40;;;;;;;;;;;;;;;;;;8409521;27;29320;-76
2022/10/25 19:49:40;;;;;;;;;;;;;;;;;;8416850;27;46427;-75
2022/10/25 19:53:41;;;;;;;;;;;;;;;;;;8417215;27;27540;-75
2022/10/25 19:57:41;;;;;;;;;;;;;;;;;;8417736;27;27552;-76
2022/10/25 20:01:44;;;;;;;;;;;;;;;;;;8407456;27;28291;-73
2022/10/25 20:05:44;;;;;;;;;;;;;;;;;;8406953;27;28857;-76
2022/10/25 20:09:44;;;;;;;;;;;;;;;;;;8407913;27;28376;-75
2022/10/25 20:13:45;;;;;;;;;;;;;;;;;;8413561;27;28410;-75
2022/10/25 20:17:45;;;;;;;;;;;;;;;;;;8416793;27;28179;-76
2022/10/25 20:21:45;;;;;;;;;;;;;;;;;;8408005;27;27694;-75
2022/10/25 20:25:45;;;;;;;;;;;;;;;;;;8412536;27;28105;-75
2022/10/25 20:29:45;;;;;;;;;;;;;;;;;;8410988;27;28191;-76
2022/10/25 20:33:45;;;;;;;;;;;;;;;;;;8414805;27;28670;-76
2022/10/25 20:37:45;;;;;;;;;;;;;;;;;;8411487;27;28587;-75
2022/10/25 20:41:46;;;;;;;;;;;;;;;;;;8417732;27;27457;-76
2022/10/25 20:45:47;;;;;;;;;;;;;;;;;;8415708;27;27566;-76
2022/10/25 20:49:47;;;;;;;;;;;;;;;;;;8415604;27;29055;-76
2022/10/25 20:53:50;;;;;;;;;;;;;;;;;;8415914;27;28061;-75
2022/10/25 20:57:50;;;;;;;;;;;;;;;;;;8420332;27;28803;-76
2022/10/25 21:01:50;;;;;;;;;;;;;;;;;;8409450;27;27358;-75
2022/10/25 21:05:50;;;;;;;;;;;;;;;;;;8418932;27;27723;-76
2022/10/25 21:09:50;;;;;;;;;;;;;;;;;;8415455;27;29327;-77
2022/10/25 21:13:50;;;;;;;;;;;;;;;;;;8412491;27;27520;-76
2022/10/25 21:17:51;;;;;;;;;;;;;;;;;;8411849;27;28502;-75
2022/10/25 21:21:51;;;;;;;;;;;;;;;;;;8411614;27;28582;-75
2022/10/25 21:25:51;;;;;;;;;;;;;;;;;;8414312;27;28600;-75
2022/10/25 21:29:51;;;;;;;;;;;;;;;;;;8405038;27;28718;-75
2022/10/25 21:33:51;;;;;;;;;;;;;;;;;;8407795;27;27354;-75
2022/10/25 21:37:51;;;;;;;;;;;;;;;;;;8416714;27;27587;-73
2022/10/25 21:41:52;;;;;;;;;;;;;;;;;;8413266;27;28598;-74
2022/10/25 21:45:55;;;;;;;;;;;;;;;;;;8408220;27;28831;-75
2022/10/25 21:49:56;;;;;;;;;;;;;;;;;;8413559;27;27219;-74
2022/10/25 21:54:00;;;;;;;;;;;;;;;;;;8409390;27;28488;-75
2022/10/25 21:58:00;;;;;;;;;;;;;;;;;;8417586;27;29701;-75
2022/10/25 22:02:00;;;;;;;;;;;;;;;;;;8409091;27;27498;-75
2022/10/25 22:06:00;;;;;;;;;;;;;;;;;;8407471;27;30010;-74
2022/10/25 22:10:00;;;;;;;;;;;;;;;;;;8417794;27;28196;-75
2022/10/25 22:14:00;;;;;;;;;;;;;;;;;;8415251;27;29874;-75
2022/10/25 22:18:00;;;;;;;;;;;;;;;;;;8410682;27;27381;-76
2022/10/25 22:22:01;;;;;;;;;;;;;;;;;;8414575;27;28755;-77
2022/10/25 22:26:01;;;;;;;;;;;;;;;;;;8413776;27;27410;-76
2022/10/25 22:30:01;;;;;;;;;;;;;;;;;;8417354;27;27655;-76
2022/10/25 22:34:01;;;;;;;;;;;;;;;;;;8408413;27;28023;-76
2022/10/25 22:38:02;;;;;;;;;;;;;;;;;;8412390;27;28562;-76
2022/10/25 22:42:02;;;;;;;;;;;;;;;;;;8416280;27;27654;-75
2022/10/25 22:46:02;;;;;;;;;;;;;;;;;;8413375;27;27378;-76
2022/10/25 22:50:02;;;;;;;;;;;;;;;;;;8411564;27;28606;-75
2022/10/25 22:54:02;;;;;;;;;;;;;;;;;;8411132;27;28215;-76
2022/10/25 22:58:02;;;;;;;;;;;;;;;;;;8413495;27;28502;-75
2022/10/25 23:02:03;;;;;;;;;;;;;;;;;;8413099;27;27664;-75
2022/10/25 23:06:03;;;;;;;;;;;;;;;;;;8406812;27;28397;-74
2022/10/25 23:10:03;;;;;;;;;;;;;;;;;;8412443;27;27786;-75
2022/10/25 23:14:04;;;;;;;;;;;;;;;;;;8409792;27;28411;-74
2022/10/25 23:18:04;;;;;;;;;;;;;;;;;;8414842;27;28384;-75
2022/10/25 23:22:04;;;;;;;;;;;;;;;;;;8410744;27;27488;-74
2022/10/25 23:26:04;;;;;;;;;;;;;;;;;;8419608;27;28828;-75
2022/10/25 23:30:04;;;;;;;;;;;;;;;;;;8417990;27;28157;-75
2022/10/25 23:34:04;;;;;;;;;;;;;;;;;;8415766;27;28541;-75
2022/10/25 23:38:05;;;;;;;;;;;;;;;;;;8415271;27;27115;-75
2022/10/25 23:42:05;;;;;;;;;;;;;;;;;;8419930;27;27947;-75
2022/10/25 23:46:05;;;;;;;;;;;;;;;;;;8417778;27;28051;-76
2022/10/25 23:50:05;;;;;;;;;;;;;;;;;;8419974;27;28110;-73
2022/10/25 23:54:08;;;;;;;;;;;;;;;;;;8419767;27;27454;-74
2022/10/25 23:58:08;;;;;;;;;;;;;;;;;;8411696;27;28806;-75
